MDT,Max TemperatureF,Mean TemperatureF,Min TemperatureF,Max Dew PointF,MeanDew PointF,Min DewpointF,Max Humidity, Mean Humidity, Min Humidity, Max Sea Level PressureIn, Mean Sea Level PressureIn, Min Sea Level PressureIn, Max VisibilityMiles, Mean VisibilityMiles, Min VisibilityMiles, Max Wind SpeedMPH, Mean Wind SpeedMPH, Max Gust SpeedMPH,PrecipitationIn, CloudCover, Events, WindDirDegrees
2013-3-1,55,45,35,27,23,16,52,43,31,30.27,30.23,30.19,10,10,10,25,14,39,0.00,3,,268
2013-3-2,60,48,35,28,25,23,70,44,25,30.25,30.13,29.90,10,10,10,25,15,36,0.00,0,,258
2013-3-3,53,40,26,32,26,10,93,54,30,29.88,29.70,29.53,10,10,2,25,14,38,0.00,3,,259
2013-3-4,28,19,10,12,8,3,79,57,37,30.23,30.05,29.81,10,10,10,22,8,31,0.00,2,,16
2013-3-5,37,22,6,10,8,3,92,55,28,30.20,30.08,29.96,10,10,10,17,5,21,0.00,0,,154
2013-3-6,53,34,15,28,17,7,74,49,24,29.96,29.79,29.65,10,10,10,18,4,25,0.00,3,,206
2013-3-7,48,40,30,19,11,3,48,31,17,29.96,29.90,29.80,10,10,10,22,11,39,0.00,2,,225
2013-3-8,46,36,26,27,21,10,75,55,37,29.94,29.85,29.76,10,10,10,15,4,20,0.00,5,,15
2013-3-9,42,33,23,27,17,12,86,55,29,30.18,30.01,29.84,10,10,10,25,11,34,0.00,2,,357
2013-3-10,51,34,17,19,13,9,80,44,22,30.18,30.08,29.96,10,10,10,22,5,39,0.00,0,,157
2013-3-11,46,35,23,25,20,10,80,56,25,30.22,30.02,29.95,10,10,10,22,11,39,0.00,6,,343
2013-3-12,50,34,17,28,19,14,93,60,32,30.24,30.15,30.05,10,10,10,22,8,32,0.00,4,,149
2013-3-13,60,54,48,28,25,21,46,35,23,30.16,30.12,30.07,10,10,10,23,15,37,0.00,1,,267
2013-3-14,66,56,46,28,24,18,43,28,18,30.19,30.12,30.01,10,10,10,18,11,28,0.00,1,,259
2013-3-15,64,54,42,25,19,14,49,24,16,30.01,29.93,29.88,10,10,10,22,12,38,0.00,1,,284
2013-3-16,51,43,35,36,27,9,93,58,20,30.00,29.86,29.65,10,10,10,16,6,22,0.00,5,,187
2013-3-17,42,35,26,28,18,7,87,51,28,29.83,29.59,29.40,10,9,1,28,11,37,0.00,3,,278
2013-3-18,37,27,17,19,8,1,74,41,30,29.91,29.84,29.81,10,10,10,25,9,39,0.00,3,,267
2013-3-19,39,28,17,19,12,7,93,56,28,30.18,30.09,29.90,10,10,8,20,6,24,0.00,2,,92
2013-3-20,55,38,21,28,17,5,64,45,28,30.16,29.84,29.60,10,10,10,23,8,34,0.00,2,,212
2013-3-21,44,34,24,34,23,7,93,67,26,29.85,29.67,29.51,10,9,1,21,10,33,0.00,6,,319
2013-3-22,32,22,12,21,14,7,100,71,37,30.02,29.85,29.79,10,10,2,20,8,28,0.00,6,,19
2013-3-23,26,19,12,16,11,3,93,69,37,30.15,30.09,30.02,10,10,6,15,8,21,0.00,6,,4
2013-3-24,30,20,10,10,7,1,92,60,34,30.17,30.14,30.12,10,10,10,18,5,25,0.00,4,,337
2013-3-25,42,25,8,10,6,0,79,45,21,30.16,30.08,29.99,10,10,10,18,6,24,0.00,0,,171
2013-3-26,48,36,23,18,11,1,51,35,23,29.99,29.93,29.87,10,10,2,12,4,,0.00,2,,88
2013-3-27,53,37,21,25,19,12,69,44,26,30.02,29.97,29.93,10,10,6,10,5,16,0.00,3,,231
2013-3-28,60,46,32,27,22,18,65,41,20,30.07,30.03,29.99,10,10,10,14,6,20,0.00,1,,243
2013-3-29,59,48,37,37,27,16,93,50,31,30.15,30.08,30.04,10,10,10,17,6,26,0.00,3,,270
2013-3-30,53,44,35,37,31,21,100,68,28,30.19,30.15,30.10,10,10,10,13,5,16,0.02,4,,106
2013-3-31,57,46,35,28,24,19,70,45,29,30.10,30.04,29.99,10,10,10,18,9,25,0.00,0,,355